CheckWX is a tool to help pilots better visualize weather data.  It is not intended as a substitute for an official pre-flight weather briefing.

00:28:44 UTC

SBBH METAR
Pampulha - Carlos Drummond de Andrade Airport
Belo Horizonte, Brazil
Current

29 mins ago

SBBH 170000Z 11007KT CAVOK 22/13 Q1020
Observed
Sep-17 @ 00:00 UTC
Wind
  • 110° at 7 KTS
Visibility
10,000+ meters
Flight Rules
VFR
Cloud Levels
  • Clear skies
Temperature
22°C / 72°F
Dewpoint
13°C / 55°F
Humidity
57%
Altimeter
30.12" Hg
Pressure
1019.92 hPa
Previous

1 hour ago

SBBH 162300Z 09005KT CAVOK 23/12 Q1020
Observed
Sep-16 @ 23:00 UTC
Wind
  • 090° at 5 KTS
Visibility
10,000+ meters
Flight Rules
VFR
Cloud Levels
  • Clear skies
Temperature
23°C / 73°F
Dewpoint
12°C / 54°F
Humidity
50%
Altimeter
30.12" Hg
Pressure
1019.92 hPa
Previous

2 hours ago

SBBH 162200Z 08007KT CAVOK 24/12 Q1019
Observed
Sep-16 @ 22:00 UTC
Wind
  • 080° at 7 KTS
Visibility
10,000+ meters
Flight Rules
VFR
Cloud Levels
  • Clear skies
Temperature
24°C / 75°F
Dewpoint
12°C / 54°F
Humidity
47%
Altimeter
30.09" Hg
Pressure
1018.92 hPa